MMTG/TGZ METAR and TAF weather

Enter ICAO airport designator
Station Type Date Time Source
MMTG METAR 2019/02/20 04:44 UTC NOAA

MMTG 200444Z 28005KT 10SM SKC 24/14 A2993 RMK HZY


Station Type Date Time Source
MMTG Decoded METAR 2019/02/20 04:44 UTC NOAA

Tuxtla Gutierrez, Chis., Mexico (MMTG) 16-45N 093-07W
Feb 19, 2019 - 11:44 PM EST / 2019.02.20 0444 UTC
Wind: from the W (280 degrees) at 6 MPH (5 KT):0
Visibility: 10 mile(s):0
Sky conditions: clear
Temperature: 75 F (24 C)
Dew Point: 57 F (14 C)
Relative Humidity: 53%
Pressure (altimeter): 29.93 in. Hg (1013 hPa)
ob: MMTG 200444Z 28005KT 10SM SKC 24/14 A2993 RMK HZY
cycle: 4

Station Type Date Time Source
MMTG TAF 2019/02/20 06:54 UTC NOAA

TAF TAF MMTG 200452Z 2006/2106 30005KT P6SM SKC
FM201700 24012KT P6SM SCT020
FM210300 30005KT P6SM SCT020


Example: see airport list